sensor_id;sensor_type;location;lat;lon;timestamp;P1;durP1;ratioP1;P2;durP2;ratioP2
42724;SDS011;28369;44.046;23.014;2023-02-05T02:42:56;10.63;;;6.60;;
42724;SDS011;28369;44.046;23.014;2023-02-05T02:45:37;12.00;;;6.93;;
42724;SDS011;28369;44.046;23.014;2023-02-05T02:48:08;12.23;;;7.47;;
42724;SDS011;28369;44.046;23.014;2023-02-05T02:50:36;15.17;;;8.07;;
42724;SDS011;28369;44.046;23.014;2023-02-05T02:53:16;12.47;;;8.17;;
42724;SDS011;28369;44.046;23.014;2023-02-05T02:55:46;11.27;;;8.30;;
42724;SDS011;28369;44.046;23.014;2023-02-05T02:58:20;12.80;;;7.00;;
42724;SDS011;28369;44.046;23.014;2023-02-05T03:00:49;13.07;;;9.00;;
42724;SDS011;28369;44.046;23.014;2023-02-05T03:03:17;11.87;;;7.80;;
42724;SDS011;28369;44.046;23.014;2023-02-05T03:05:45;12.23;;;7.97;;
42724;SDS011;28369;44.046;23.014;2023-02-05T03:08:18;12.40;;;7.90;;
42724;SDS011;28369;44.046;23.014;2023-02-05T03:11:00;13.40;;;8.60;;
42724;SDS011;28369;44.046;23.014;2023-02-05T03:13:30;14.40;;;7.57;;
42724;SDS011;28369;44.046;23.014;2023-02-05T03:15:56;15.13;;;9.77;;
42724;SDS011;28369;44.046;23.014;2023-02-05T03:18:22;14.20;;;10.30;;
42724;SDS011;28369;44.046;23.014;2023-02-05T03:23:19;16.40;;;8.73;;
42724;SDS011;28369;44.046;23.014;2023-02-05T03:25:45;14.03;;;8.50;;
42724;SDS011;28369;44.046;23.014;2023-02-05T03:28:11;14.43;;;8.80;;
42724;SDS011;28369;44.046;23.014;2023-02-05T03:30:51;14.30;;;10.23;;
42724;SDS011;28369;44.046;23.014;2023-02-05T03:36:24;14.47;;;8.77;;
42724;SDS011;28369;44.046;23.014;2023-02-05T03:41:34;16.13;;;9.60;;
42724;SDS011;28369;44.046;23.014;2023-02-05T04:28:08;18.23;;;12.48;;
42724;SDS011;28369;44.046;23.014;2023-02-05T04:30:34;16.13;;;9.90;;
42724;SDS011;28369;44.046;23.014;2023-02-05T04:32:59;16.63;;;11.17;;
42724;SDS011;28369;44.046;23.014;2023-02-05T04:35:25;15.80;;;10.17;;
42724;SDS011;28369;44.046;23.014;2023-02-05T04:37:50;14.23;;;9.57;;
42724;SDS011;28369;44.046;23.014;2023-02-05T04:40:16;19.03;;;11.17;;
42724;SDS011;28369;44.046;23.014;2023-02-05T04:42:41;15.50;;;10.10;;
42724;SDS011;28369;44.046;23.014;2023-02-05T04:45:07;14.23;;;8.70;;
42724;SDS011;28369;44.046;23.014;2023-02-05T04:47:33;15.13;;;10.20;;
42724;SDS011;28369;44.046;23.014;2023-02-05T04:49:59;14.83;;;10.90;;
42724;SDS011;28369;44.046;23.014;2023-02-05T04:52:25;15.00;;;9.50;;
42724;SDS011;28369;44.046;23.014;2023-02-05T04:54:50;16.27;;;9.63;;
42724;SDS011;28369;44.046;23.014;2023-02-05T04:57:16;15.30;;;9.70;;
42724;SDS011;28369;44.046;23.014;2023-02-05T04:59:41;14.47;;;9.67;;
42724;SDS011;28369;44.046;23.014;2023-02-05T05:02:07;15.87;;;8.60;;
42724;SDS011;28369;44.046;23.014;2023-02-05T05:04:32;17.47;;;10.37;;
42724;SDS011;28369;44.046;23.014;2023-02-05T05:06:58;13.60;;;8.77;;
42724;SDS011;28369;44.046;23.014;2023-02-05T05:09:24;14.37;;;9.23;;
42724;SDS011;28369;44.046;23.014;2023-02-05T05:11:51;14.73;;;9.23;;
42724;SDS011;28369;44.046;23.014;2023-02-05T05:14:17;13.37;;;9.73;;
42724;SDS011;28369;44.046;23.014;2023-02-05T05:16:43;13.70;;;9.07;;
42724;SDS011;28369;44.046;23.014;2023-02-05T05:19:08;14.10;;;9.53;;
42724;SDS011;28369;44.046;23.014;2023-02-05T05:21:34;15.07;;;9.40;;
42724;SDS011;28369;44.046;23.014;2023-02-05T05:23:59;14.33;;;10.03;;
42724;SDS011;28369;44.046;23.014;2023-02-05T05:26:26;13.63;;;8.73;;
42724;SDS011;28369;44.046;23.014;2023-02-05T05:28:55;13.43;;;7.87;;
42724;SDS011;28369;44.046;23.014;2023-02-05T05:31:22;13.07;;;8.93;;
42724;SDS011;28369;44.046;23.014;2023-02-05T05:33:48;14.13;;;9.20;;
42724;SDS011;28369;44.046;23.014;2023-02-05T05:36:14;11.17;;;9.03;;
42724;SDS011;28369;44.046;23.014;2023-02-05T05:38:40;13.90;;;9.00;;
42724;SDS011;28369;44.046;23.014;2023-02-05T05:41:06;13.93;;;8.40;;
42724;SDS011;28369;44.046;23.014;2023-02-05T05:43:52;11.43;;;8.27;;
42724;SDS011;28369;44.046;23.014;2023-02-05T05:46:22;13.00;;;7.87;;
42724;SDS011;28369;44.046;23.014;2023-02-05T05:48:49;13.17;;;9.23;;
42724;SDS011;28369;44.046;23.014;2023-02-05T05:51:16;14.13;;;8.67;;
42724;SDS011;28369;44.046;23.014;2023-02-05T05:53:42;13.43;;;8.27;;
42724;SDS011;28369;44.046;23.014;2023-02-05T05:56:08;14.73;;;9.23;;
42724;SDS011;28369;44.046;23.014;2023-02-05T05:58:33;15.40;;;9.30;;
42724;SDS011;28369;44.046;23.014;2023-02-05T06:00:59;13.67;;;8.77;;
42724;SDS011;28369;44.046;23.014;2023-02-05T06:03:24;14.90;;;7.90;;
42724;SDS011;28369;44.046;23.014;2023-02-05T06:05:50;13.83;;;8.77;;
42724;SDS011;28369;44.046;23.014;2023-02-05T06:08:15;12.50;;;8.27;;
42724;SDS011;28369;44.046;23.014;2023-02-05T06:10:41;11.80;;;7.77;;
42724;SDS011;28369;44.046;23.014;2023-02-05T06:13:07;12.40;;;8.00;;
42724;SDS011;28369;44.046;23.014;2023-02-05T06:15:32;11.43;;;7.50;;
42724;SDS011;28369;44.046;23.014;2023-02-05T06:17:58;12.87;;;8.03;;
42724;SDS011;28369;44.046;23.014;2023-02-05T06:20:24;11.00;;;8.20;;
42724;SDS011;28369;44.046;23.014;2023-02-05T06:22:50;11.23;;;8.17;;
42724;SDS011;28369;44.046;23.014;2023-02-05T06:25:15;12.03;;;7.93;;
42724;SDS011;28369;44.046;23.014;2023-02-05T06:27:42;11.40;;;7.70;;
42724;SDS011;28369;44.046;23.014;2023-02-05T06:30:08;8.70;;;7.03;;
42724;SDS011;28369;44.046;23.014;2023-02-05T06:32:34;15.33;;;9.43;;
42724;SDS011;28369;44.046;23.014;2023-02-05T06:34:59;11.80;;;7.37;;
42724;SDS011;28369;44.046;23.014;2023-02-05T06:37:25;14.00;;;9.70;;
42724;SDS011;28369;44.046;23.014;2023-02-05T06:39:52;17.57;;;11.20;;
42724;SDS011;28369;44.046;23.014;2023-02-05T06:42:18;21.43;;;10.63;;
42724;SDS011;28369;44.046;23.014;2023-02-05T06:44:43;10.50;;;7.13;;
42724;SDS011;28369;44.046;23.014;2023-02-05T06:47:09;15.03;;;9.00;;
42724;SDS011;28369;44.046;23.014;2023-02-05T06:49:34;15.67;;;8.00;;
42724;SDS011;28369;44.046;23.014;2023-02-05T06:52:00;26.97;;;9.97;;
42724;SDS011;28369;44.046;23.014;2023-02-05T06:54:25;16.70;;;8.57;;
42724;SDS011;28369;44.046;23.014;2023-02-05T06:56:51;15.03;;;9.37;;
42724;SDS011;28369;44.046;23.014;2023-02-05T06:59:16;28.77;;;15.33;;
42724;SDS011;28369;44.046;23.014;2023-02-05T07:01:42;56.63;;;25.40;;
42724;SDS011;28369;44.046;23.014;2023-02-05T07:04:07;12.90;;;7.70;;
42724;SDS011;28369;44.046;23.014;2023-02-05T07:06:33;13.73;;;6.83;;
42724;SDS011;28369;44.046;23.014;2023-02-05T07:08:58;10.20;;;5.67;;
42724;SDS011;28369;44.046;23.014;2023-02-05T07:11:24;9.97;;;5.57;;
42724;SDS011;28369;44.046;23.014;2023-02-05T07:13:49;16.30;;;9.57;;
42724;SDS011;28369;44.046;23.014;2023-02-05T07:16:15;14.10;;;6.90;;
42724;SDS011;28369;44.046;23.014;2023-02-05T07:18:40;9.87;;;5.40;;
42724;SDS011;28369;44.046;23.014;2023-02-05T07:21:07;7.77;;;4.83;;
42724;SDS011;28369;44.046;23.014;2023-02-05T07:23:34;11.70;;;6.73;;
42724;SDS011;28369;44.046;23.014;2023-02-05T07:26:14;10.20;;;5.93;;
42724;SDS011;28369;44.046;23.014;2023-02-05T07:28:40;8.80;;;5.37;;
42724;SDS011;28369;44.046;23.014;2023-02-05T07:31:14;7.23;;;5.07;;
42724;SDS011;28369;44.046;23.014;2023-02-05T07:33:42;8.27;;;5.20;;
42724;SDS011;28369;44.046;23.014;2023-02-05T07:36:09;7.40;;;4.50;;
42724;SDS011;28369;44.046;23.014;2023-02-05T07:38:37;7.40;;;5.27;;
42724;SDS011;28369;44.046;23.014;2023-02-05T07:41:04;6.67;;;4.70;;
42724;SDS011;28369;44.046;23.014;2023-02-05T07:43:30;5.60;;;3.47;;
42724;SDS011;28369;44.046;23.014;2023-02-05T07:46:00;5.90;;;3.93;;
42724;SDS011;28369;44.046;23.014;2023-02-05T07:48:30;6.60;;;4.50;;
42724;SDS011;28369;44.046;23.014;2023-02-05T07:50:56;8.47;;;5.03;;
42724;SDS011;28369;44.046;23.014;2023-02-05T07:53:22;8.73;;;4.50;;
42724;SDS011;28369;44.046;23.014;2023-02-05T07:55:48;7.57;;;4.93;;
42724;SDS011;28369;44.046;23.014;2023-02-05T07:58:13;10.13;;;5.50;;
42724;SDS011;28369;44.046;23.014;2023-02-05T08:00:39;10.63;;;5.70;;
42724;SDS011;28369;44.046;23.014;2023-02-05T08:03:04;8.70;;;5.33;;
42724;SDS011;28369;44.046;23.014;2023-02-05T08:05:30;6.77;;;4.53;;
42724;SDS011;28369;44.046;23.014;2023-02-05T08:07:56;7.93;;;5.17;;
42724;SDS011;28369;44.046;23.014;2023-02-05T08:10:21;7.83;;;4.07;;
42724;SDS011;28369;44.046;23.014;2023-02-05T08:12:47;8.30;;;4.30;;
42724;SDS011;28369;44.046;23.014;2023-02-05T08:15:12;8.50;;;4.73;;
42724;SDS011;28369;44.046;23.014;2023-02-05T08:17:38;6.23;;;3.97;;
42724;SDS011;28369;44.046;23.014;2023-02-05T08:20:04;27.60;;;14.80;;
42724;SDS011;28369;44.046;23.014;2023-02-05T08:22:33;9.30;;;6.57;;
42724;SDS011;28369;44.046;23.014;2023-02-05T08:25:00;12.97;;;7.27;;
42724;SDS011;28369;44.046;23.014;2023-02-05T08:27:26;9.80;;;7.27;;
42724;SDS011;28369;44.046;23.014;2023-02-05T08:29:51;5.37;;;3.93;;
42724;SDS011;28369;44.046;23.014;2023-02-05T08:32:17;9.40;;;5.20;;
42724;SDS011;28369;44.046;23.014;2023-02-05T08:34:42;14.52;;;7.72;;
42724;SDS011;28369;44.046;23.014;2023-02-05T08:37:08;15.38;;;9.35;;
42724;SDS011;28369;44.046;23.014;2023-02-05T08:39:34;12.70;;;7.32;;
42724;SDS011;28369;44.046;23.014;2023-02-05T08:42:00;11.25;;;7.25;;
42724;SDS011;28369;44.046;23.014;2023-02-05T08:44:26;7.00;;;5.63;;
42724;SDS011;28369;44.046;23.014;2023-02-05T08:46:52;6.43;;;4.35;;
42724;SDS011;28369;44.046;23.014;2023-02-05T08:49:18;9.20;;;5.45;;
42724;SDS011;28369;44.046;23.014;2023-02-05T08:51:44;6.95;;;3.92;;
42724;SDS011;28369;44.046;23.014;2023-02-05T08:54:10;6.13;;;4.00;;
42724;SDS011;28369;44.046;23.014;2023-02-05T08:56:40;4.13;;;3.65;;
42724;SDS011;28369;44.046;23.014;2023-02-05T08:59:08;6.13;;;4.28;;
42724;SDS011;28369;44.046;23.014;2023-02-05T09:01:35;4.63;;;3.65;;
42724;SDS011;28369;44.046;23.014;2023-02-05T09:04:02;6.95;;;4.15;;
42724;SDS011;28369;44.046;23.014;2023-02-05T09:06:28;8.00;;;5.20;;
42724;SDS011;28369;44.046;23.014;2023-02-05T09:08:54;41.80;;;20.88;;
42724;SDS011;28369;44.046;23.014;2023-02-05T09:11:20;12.30;;;8.27;;
42724;SDS011;28369;44.046;23.014;2023-02-05T09:13:47;9.10;;;5.90;;
42724;SDS011;28369;44.046;23.014;2023-02-05T09:16:13;9.93;;;7.35;;
42724;SDS011;28369;44.046;23.014;2023-02-05T09:18:38;11.05;;;8.82;;
42724;SDS011;28369;44.046;23.014;2023-02-05T09:21:07;5.63;;;3.97;;
42724;SDS011;28369;44.046;23.014;2023-02-05T09:23:34;5.35;;;3.80;;
42724;SDS011;28369;44.046;23.014;2023-02-05T09:25:59;4.78;;;3.70;;
42724;SDS011;28369;44.046;23.014;2023-02-05T09:28:25;7.30;;;4.78;;
42724;SDS011;28369;44.046;23.014;2023-02-05T09:30:51;6.38;;;5.05;;
42724;SDS011;28369;44.046;23.014;2023-02-05T09:33:16;5.03;;;3.20;;
42724;SDS011;28369;44.046;23.014;2023-02-05T09:35:42;4.30;;;3.55;;
42724;SDS011;28369;44.046;23.014;2023-02-05T09:38:08;26.85;;;18.20;;
42724;SDS011;28369;44.046;23.014;2023-02-05T09:40:51;5.25;;;3.78;;
42724;SDS011;28369;44.046;23.014;2023-02-05T09:46:09;4.38;;;3.45;;
42724;SDS011;28369;44.046;23.014;2023-02-05T09:51:34;4.63;;;3.45;;
42724;SDS011;28369;44.046;23.014;2023-02-05T09:54:15;3.78;;;3.20;;
42724;SDS011;28369;44.046;23.014;2023-02-05T09:56:46;7.57;;;3.38;;
42724;SDS011;28369;44.046;23.014;2023-02-05T09:59:24;3.90;;;3.08;;
42724;SDS011;28369;44.046;23.014;2023-02-05T10:01:58;3.83;;;2.95;;
42724;SDS011;28369;44.046;23.014;2023-02-05T10:04:26;3.72;;;2.97;;
42724;SDS011;28369;44.046;23.014;2023-02-05T10:15:02;4.93;;;3.25;;
42724;SDS011;28369;44.046;23.014;2023-02-05T10:20:17;3.80;;;2.55;;
42724;SDS011;28369;44.046;23.014;2023-02-05T10:25:45;5.07;;;3.25;;
42724;SDS011;28369;44.046;23.014;2023-02-05T10:28:38;4.40;;;2.90;;
42724;SDS011;28369;44.046;23.014;2023-02-05T10:31:41;3.63;;;3.03;;
42724;SDS011;28369;44.046;23.014;2023-02-05T10:37:05;10.25;;;6.28;;
42724;SDS011;28369;44.046;23.014;2023-02-05T10:39:44;8.20;;;5.10;;
42724;SDS011;28369;44.046;23.014;2023-02-05T10:44:49;7.50;;;3.88;;
42724;SDS011;28369;44.046;23.014;2023-02-05T10:47:39;4.55;;;2.85;;
42724;SDS011;28369;44.046;23.014;2023-02-05T10:52:39;4.43;;;2.53;;
42724;SDS011;28369;44.046;23.014;2023-02-05T10:55:04;3.45;;;2.63;;
42724;SDS011;28369;44.046;23.014;2023-02-05T10:57:36;4.30;;;2.42;;
42724;SDS011;28369;44.046;23.014;2023-02-05T11:00:03;2.75;;;2.08;;
42724;SDS011;28369;44.046;23.014;2023-02-05T11:02:37;11.98;;;5.80;;
42724;SDS011;28369;44.046;23.014;2023-02-05T11:05:51;9.52;;;4.55;;
42724;SDS011;28369;44.046;23.014;2023-02-05T11:07:59;24.15;;;9.52;;
42724;SDS011;28369;44.046;23.014;2023-02-05T11:10:25;13.43;;;5.93;;
42724;SDS011;28369;44.046;23.014;2023-02-05T11:18:38;8.35;;;5.13;;
42724;SDS011;28369;44.046;23.014;2023-02-05T11:21:06;14.25;;;8.10;;
42724;SDS011;28369;44.046;23.014;2023-02-05T11:23:33;11.88;;;7.95;;
42724;SDS011;28369;44.046;23.014;2023-02-05T11:26:17;5.03;;;3.47;;
42724;SDS011;28369;44.046;23.014;2023-02-05T11:28:44;6.32;;;3.83;;
42724;SDS011;28369;44.046;23.014;2023-02-05T11:33:49;9.65;;;3.88;;
42724;SDS011;28369;44.046;23.014;2023-02-05T11:36:16;5.93;;;3.00;;
42724;SDS011;28369;44.046;23.014;2023-02-05T11:38:53;4.93;;;2.72;;
42724;SDS011;28369;44.046;23.014;2023-02-05T11:41:31;7.10;;;3.90;;
42724;SDS011;28369;44.046;23.014;2023-02-05T11:44:20;10.60;;;5.18;;
42724;SDS011;28369;44.046;23.014;2023-02-05T11:46:50;4.78;;;3.15;;
42724;SDS011;28369;44.046;23.014;2023-02-05T11:49:21;8.82;;;4.93;;
42724;SDS011;28369;44.046;23.014;2023-02-05T11:51:51;6.50;;;4.65;;
42724;SDS011;28369;44.046;23.014;2023-02-05T11:54:26;8.65;;;5.70;;
42724;SDS011;28369;44.046;23.014;2023-02-05T11:56:59;5.57;;;3.28;;
42724;SDS011;28369;44.046;23.014;2023-02-05T11:59:37;2.58;;;2.33;;
42724;SDS011;28369;44.046;23.014;2023-02-05T12:04:58;4.13;;;3.25;;
42724;SDS011;28369;44.046;23.014;2023-02-05T12:07:25;5.22;;;3.38;;
42724;SDS011;28369;44.046;23.014;2023-02-05T12:09:55;5.50;;;3.60;;
42724;SDS011;28369;44.046;23.014;2023-02-05T12:20:21;4.05;;;2.80;;
42724;SDS011;28369;44.046;23.014;2023-02-05T12:23:03;5.57;;;3.45;;
42724;SDS011;28369;44.046;23.014;2023-02-05T12:31:01;7.45;;;3.47;;
42724;SDS011;28369;44.046;23.014;2023-02-05T12:39:17;5.80;;;4.10;;
42724;SDS011;28369;44.046;23.014;2023-02-05T12:41:48;5.95;;;4.40;;
42724;SDS011;28369;44.046;23.014;2023-02-05T12:53:00;3.25;;;2.95;;
42724;SDS011;28369;44.046;23.014;2023-02-05T12:58:41;6.07;;;4.30;;
42724;SDS011;28369;44.046;23.014;2023-02-05T13:01:15;10.18;;;5.07;;
42724;SDS011;28369;44.046;23.014;2023-02-05T13:03:47;15.82;;;7.57;;
42724;SDS011;28369;44.046;23.014;2023-02-05T13:06:17;12.98;;;5.82;;
42724;SDS011;28369;44.046;23.014;2023-02-05T13:08:55;13.32;;;7.40;;
42724;SDS011;28369;44.046;23.014;2023-02-05T13:11:24;23.55;;;11.25;;
42724;SDS011;28369;44.046;23.014;2023-02-05T13:14:29;19.08;;;9.43;;
42724;SDS011;28369;44.046;23.014;2023-02-05T13:17:33;12.82;;;7.85;;
42724;SDS011;28369;44.046;23.014;2023-02-05T13:19:45;17.35;;;8.93;;
42724;SDS011;28369;44.046;23.014;2023-02-05T13:22:20;11.18;;;6.65;;
42724;SDS011;28369;44.046;23.014;2023-02-05T13:30:57;9.40;;;5.30;;
42724;SDS011;28369;44.046;23.014;2023-02-05T13:33:26;8.50;;;5.75;;
42724;SDS011;28369;44.046;23.014;2023-02-05T13:38:43;10.77;;;7.43;;
42724;SDS011;28369;44.046;23.014;2023-02-05T13:54:58;16.30;;;8.38;;
42724;SDS011;28369;44.046;23.014;2023-02-05T14:00:09;15.07;;;9.77;;
42724;SDS011;28369;44.046;23.014;2023-02-05T14:05:13;10.18;;;6.53;;
42724;SDS011;28369;44.046;23.014;2023-02-05T14:07:47;13.27;;;7.28;;
42724;SDS011;28369;44.046;23.014;2023-02-05T14:15:50;13.73;;;7.47;;
42724;SDS011;28369;44.046;23.014;2023-02-05T14:24:03;21.33;;;9.25;;
42724;SDS011;28369;44.046;23.014;2023-02-05T14:26:53;21.53;;;10.33;;
42724;SDS011;28369;44.046;23.014;2023-02-05T14:29:41;26.00;;;11.45;;
42724;SDS011;28369;44.046;23.014;2023-02-05T14:32:12;21.10;;;10.60;;
42724;SDS011;28369;44.046;23.014;2023-02-05T14:37:02;19.33;;;9.77;;
42724;SDS011;28369;44.046;23.014;2023-02-05T14:39:32;34.83;;;15.53;;
42724;SDS011;28369;44.046;23.014;2023-02-05T14:42:01;43.75;;;18.60;;
42724;SDS011;28369;44.046;23.014;2023-02-05T14:44:33;21.53;;;10.20;;
42724;SDS011;28369;44.046;23.014;2023-02-05T14:49:45;22.87;;;9.80;;
42724;SDS011;28369;44.046;23.014;2023-02-05T14:52:21;37.80;;;13.40;;
42724;SDS011;28369;44.046;23.014;2023-02-05T15:00:37;49.00;;;13.70;;
42724;SDS011;28369;44.046;23.014;2023-02-05T15:13:30;14.03;;;5.60;;
42724;SDS011;28369;44.046;23.014;2023-02-05T15:21:13;24.20;;;9.70;;
42724;SDS011;28369;44.046;23.014;2023-02-05T15:23:44;21.60;;;9.23;;
42724;SDS011;28369;44.046;23.014;2023-02-05T15:29:11;16.73;;;9.75;;
42724;SDS011;28369;44.046;23.014;2023-02-05T15:40:09;13.20;;;8.18;;
42724;SDS011;28369;44.046;23.014;2023-02-05T15:42:42;12.27;;;7.83;;
42724;SDS011;28369;44.046;23.014;2023-02-05T15:45:26;13.53;;;7.67;;
42724;SDS011;28369;44.046;23.014;2023-02-05T15:48:04;10.43;;;6.63;;
42724;SDS011;28369;44.046;23.014;2023-02-05T15:50:43;8.63;;;5.87;;
42724;SDS011;28369;44.046;23.014;2023-02-05T15:55:57;9.90;;;6.07;;
42724;SDS011;28369;44.046;23.014;2023-02-05T15:58:24;11.30;;;7.00;;
42724;SDS011;28369;44.046;23.014;2023-02-05T16:00:50;13.30;;;7.70;;
42724;SDS011;28369;44.046;23.014;2023-02-05T16:03:24;12.30;;;6.37;;
42724;SDS011;28369;44.046;23.014;2023-02-05T16:05:54;11.07;;;5.97;;
42724;SDS011;28369;44.046;23.014;2023-02-05T16:08:20;3.23;;;2.17;;
42724;SDS011;28369;44.046;23.014;2023-02-05T16:10:57;5.17;;;2.20;;
42724;SDS011;28369;44.046;23.014;2023-02-05T16:13:26;3.53;;;2.30;;
42724;SDS011;28369;44.046;23.014;2023-02-05T16:21:13;14.47;;;5.90;;
42724;SDS011;28369;44.046;23.014;2023-02-05T16:23:44;6.80;;;3.40;;
42724;SDS011;28369;44.046;23.014;2023-02-05T16:26:15;7.10;;;2.87;;
42724;SDS011;28369;44.046;23.014;2023-02-05T16:28:54;34.47;;;12.53;;
42724;SDS011;28369;44.046;23.014;2023-02-05T16:31:25;47.77;;;18.77;;
42724;SDS011;28369;44.046;23.014;2023-02-05T16:34:00;41.33;;;17.27;;
42724;SDS011;28369;44.046;23.014;2023-02-05T16:36:33;7.43;;;3.77;;
42724;SDS011;28369;44.046;23.014;2023-02-05T16:39:03;4.10;;;2.22;;
42724;SDS011;28369;44.046;23.014;2023-02-05T16:44:03;3.20;;;2.33;;
42724;SDS011;28369;44.046;23.014;2023-02-05T16:46:31;3.47;;;2.50;;
42724;SDS011;28369;44.046;23.014;2023-02-05T16:59:18;6.47;;;4.47;;
42724;SDS011;28369;44.046;23.014;2023-02-05T17:01:50;5.13;;;3.73;;
42724;SDS011;28369;44.046;23.014;2023-02-05T17:04:21;6.70;;;3.53;;
42724;SDS011;28369;44.046;23.014;2023-02-05T17:06:56;6.40;;;4.20;;
42724;SDS011;28369;44.046;23.014;2023-02-05T17:09:38;8.83;;;4.10;;
42724;SDS011;28369;44.046;23.014;2023-02-05T17:14:58;9.13;;;4.73;;
42724;SDS011;28369;44.046;23.014;2023-02-05T17:17:48;7.10;;;4.60;;
42724;SDS011;28369;44.046;23.014;2023-02-05T17:20:17;7.07;;;4.47;;
42724;SDS011;28369;44.046;23.014;2023-02-05T17:25:27;5.60;;;3.60;;
42724;SDS011;28369;44.046;23.014;2023-02-05T17:28:03;5.57;;;3.77;;
42724;SDS011;28369;44.046;23.014;2023-02-05T17:30:29;4.57;;;3.07;;
42724;SDS011;28369;44.046;23.014;2023-02-05T17:32:55;5.37;;;3.40;;
42724;SDS011;28369;44.046;23.014;2023-02-05T17:35:20;5.27;;;3.60;;
42724;SDS011;28369;44.046;23.014;2023-02-05T17:37:48;5.37;;;3.23;;
42724;SDS011;28369;44.046;23.014;2023-02-05T17:40:16;7.13;;;3.47;;
42724;SDS011;28369;44.046;23.014;2023-02-05T17:42:43;6.30;;;4.50;;
42724;SDS011;28369;44.046;23.014;2023-02-05T17:47:40;10.25;;;5.05;;
42724;SDS011;28369;44.046;23.014;2023-02-05T17:50:06;7.23;;;4.97;;
42724;SDS011;28369;44.046;23.014;2023-02-05T17:52:32;11.23;;;6.47;;
42724;SDS011;28369;44.046;23.014;2023-02-05T17:54:57;11.80;;;7.97;;
42724;SDS011;28369;44.046;23.014;2023-02-05T17:57:23;12.47;;;8.17;;
42724;SDS011;28369;44.046;23.014;2023-02-05T17:59:48;13.40;;;6.83;;
42724;SDS011;28369;44.046;23.014;2023-02-05T18:02:14;12.33;;;7.33;;
42724;SDS011;28369;44.046;23.014;2023-02-05T18:04:40;8.17;;;5.63;;
42724;SDS011;28369;44.046;23.014;2023-02-05T18:09:51;9.67;;;6.97;;
42724;SDS011;28369;44.046;23.014;2023-02-05T18:12:17;10.57;;;6.67;;
42724;SDS011;28369;44.046;23.014;2023-02-05T18:14:42;11.40;;;6.73;;
42724;SDS011;28369;44.046;23.014;2023-02-05T18:17:08;9.07;;;6.10;;
42724;SDS011;28369;44.046;23.014;2023-02-05T18:19:33;7.87;;;6.03;;
42724;SDS011;28369;44.046;23.014;2023-02-05T18:21:59;6.37;;;4.93;;
42724;SDS011;28369;44.046;23.014;2023-02-05T18:24:25;10.43;;;7.17;;
42724;SDS011;28369;44.046;23.014;2023-02-05T18:26:51;9.33;;;5.90;;
42724;SDS011;28369;44.046;23.014;2023-02-05T18:29:17;6.90;;;4.80;;
42724;SDS011;28369;44.046;23.014;2023-02-05T18:31:43;5.57;;;4.13;;
42724;SDS011;28369;44.046;23.014;2023-02-05T18:34:09;5.93;;;3.90;;
42724;SDS011;28369;44.046;23.014;2023-02-05T18:36:34;6.87;;;4.60;;
42724;SDS011;28369;44.046;23.014;2023-02-05T18:38:59;6.13;;;4.73;;
42724;SDS011;28369;44.046;23.014;2023-02-05T18:41:25;8.07;;;4.53;;
42724;SDS011;28369;44.046;23.014;2023-02-05T18:43:53;6.37;;;4.60;;
42724;SDS011;28369;44.046;23.014;2023-02-05T18:46:19;8.63;;;5.77;;
42724;SDS011;28369;44.046;23.014;2023-02-05T18:48:45;8.83;;;5.03;;
42724;SDS011;28369;44.046;23.014;2023-02-05T18:51:13;5.23;;;4.13;;
42724;SDS011;28369;44.046;23.014;2023-02-05T18:53:41;6.13;;;4.90;;
42724;SDS011;28369;44.046;23.014;2023-02-05T18:56:11;5.70;;;3.93;;
42724;SDS011;28369;44.046;23.014;2023-02-05T18:58:52;6.33;;;4.20;;
42724;SDS011;28369;44.046;23.014;2023-02-05T19:01:24;5.87;;;4.33;;
42724;SDS011;28369;44.046;23.014;2023-02-05T19:03:50;4.53;;;3.53;;
42724;SDS011;28369;44.046;23.014;2023-02-05T19:06:18;6.57;;;5.03;;
42724;SDS011;28369;44.046;23.014;2023-02-05T19:08:45;8.53;;;5.33;;
42724;SDS011;28369;44.046;23.014;2023-02-05T19:11:16;6.53;;;4.23;;
42724;SDS011;28369;44.046;23.014;2023-02-05T19:13:44;7.80;;;5.10;;
42724;SDS011;28369;44.046;23.014;2023-02-05T19:16:15;6.77;;;4.70;;
42724;SDS011;28369;44.046;23.014;2023-02-05T19:18:42;6.83;;;5.00;;
42724;SDS011;28369;44.046;23.014;2023-02-05T19:21:10;7.80;;;5.80;;
42724;SDS011;28369;44.046;23.014;2023-02-05T19:23:38;8.17;;;5.63;;
42724;SDS011;28369;44.046;23.014;2023-02-05T19:26:14;6.60;;;5.30;;
42724;SDS011;28369;44.046;23.014;2023-02-05T19:28:42;9.07;;;5.97;;
42724;SDS011;28369;44.046;23.014;2023-02-05T19:31:09;8.37;;;5.63;;
42724;SDS011;28369;44.046;23.014;2023-02-05T19:33:37;9.03;;;5.60;;
42724;SDS011;28369;44.046;23.014;2023-02-05T19:36:03;7.70;;;5.77;;
42724;SDS011;28369;44.046;23.014;2023-02-05T19:38:32;11.37;;;6.63;;
42724;SDS011;28369;44.046;23.014;2023-02-05T19:41:03;11.10;;;6.57;;
42724;SDS011;28369;44.046;23.014;2023-02-05T19:43:32;9.37;;;6.73;;
42724;SDS011;28369;44.046;23.014;2023-02-05T19:46:02;9.67;;;6.33;;
42724;SDS011;28369;44.046;23.014;2023-02-05T19:48:28;9.53;;;5.70;;
42724;SDS011;28369;44.046;23.014;2023-02-05T19:50:54;9.87;;;6.63;;
42724;SDS011;28369;44.046;23.014;2023-02-05T19:53:20;10.03;;;6.30;;
42724;SDS011;28369;44.046;23.014;2023-02-05T19:55:46;8.80;;;5.97;;
42724;SDS011;28369;44.046;23.014;2023-02-05T19:58:12;10.27;;;6.73;;
42724;SDS011;28369;44.046;23.014;2023-02-05T20:00:38;10.17;;;6.33;;
42724;SDS011;28369;44.046;23.014;2023-02-05T20:03:04;9.53;;;6.77;;
42724;SDS011;28369;44.046;23.014;2023-02-05T20:05:29;9.97;;;5.77;;
42724;SDS011;28369;44.046;23.014;2023-02-05T20:07:55;8.33;;;5.17;;
42724;SDS011;28369;44.046;23.014;2023-02-05T20:10:20;8.50;;;6.13;;
42724;SDS011;28369;44.046;23.014;2023-02-05T20:12:46;9.77;;;6.47;;
42724;SDS011;28369;44.046;23.014;2023-02-05T20:15:12;7.40;;;5.73;;
42724;SDS011;28369;44.046;23.014;2023-02-05T20:17:38;9.00;;;6.87;;
42724;SDS011;28369;44.046;23.014;2023-02-05T20:20:03;10.10;;;6.53;;
42724;SDS011;28369;44.046;23.014;2023-02-05T20:22:29;8.70;;;6.60;;
42724;SDS011;28369;44.046;23.014;2023-02-05T20:24:55;9.73;;;6.63;;
42724;SDS011;28369;44.046;23.014;2023-02-05T20:27:20;7.40;;;5.90;;
42724;SDS011;28369;44.046;23.014;2023-02-05T20:29:46;8.80;;;5.60;;
42724;SDS011;28369;44.046;23.014;2023-02-05T20:32:30;7.30;;;5.30;;
42724;SDS011;28369;44.046;23.014;2023-02-05T20:34:55;8.23;;;6.07;;
42724;SDS011;28369;44.046;23.014;2023-02-05T20:37:21;8.00;;;5.67;;
42724;SDS011;28369;44.046;23.014;2023-02-05T20:39:47;6.93;;;5.23;;
42724;SDS011;28369;44.046;23.014;2023-02-05T20:42:12;8.60;;;5.40;;
42724;SDS011;28369;44.046;23.014;2023-02-05T20:44:39;8.77;;;5.77;;
42724;SDS011;28369;44.046;23.014;2023-02-05T20:47:06;7.80;;;5.47;;
42724;SDS011;28369;44.046;23.014;2023-02-05T20:49:35;11.57;;;6.77;;
42724;SDS011;28369;44.046;23.014;2023-02-05T20:52:02;6.53;;;4.97;;
42724;SDS011;28369;44.046;23.014;2023-02-05T20:54:28;5.43;;;4.37;;
42724;SDS011;28369;44.046;23.014;2023-02-05T20:56:53;4.50;;;3.70;;
42724;SDS011;28369;44.046;23.014;2023-02-05T20:59:23;6.13;;;4.23;;
42724;SDS011;28369;44.046;23.014;2023-02-05T21:01:49;7.07;;;4.33;;
42724;SDS011;28369;44.046;23.014;2023-02-05T21:04:15;4.63;;;3.27;;
42724;SDS011;28369;44.046;23.014;2023-02-05T21:06:40;5.93;;;3.80;;
42724;SDS011;28369;44.046;23.014;2023-02-05T21:09:06;5.87;;;3.73;;
42724;SDS011;28369;44.046;23.014;2023-02-05T21:11:33;4.90;;;3.60;;